createdAt,value
2018-11-03T00:02:16.596Z,17.83
2018-11-03T00:04:44.698Z,16.43
2018-11-03T00:07:12.796Z,17.47
2018-11-03T00:09:40.951Z,14.90
2018-11-03T00:12:09.092Z,18.20
2018-11-03T00:14:37.199Z,14.60
2018-11-03T00:17:05.347Z,15.63
2018-11-03T00:19:33.433Z,15.43
2018-11-03T00:22:01.508Z,18.20
2018-11-03T00:24:30.519Z,17.03
2018-11-03T00:26:58.619Z,15.77
2018-11-03T00:29:26.713Z,16.37
2018-11-03T00:31:54.781Z,14.77
2018-11-03T00:34:22.864Z,16.20
2018-11-03T00:36:50.972Z,16.80
2018-11-03T00:39:19.045Z,16.80
2018-11-03T00:41:47.099Z,15.73
2018-11-03T00:44:15.247Z,15.10
2018-11-03T00:46:43.328Z,17.43
2018-11-03T00:49:11.461Z,15.40
2018-11-03T00:51:39.570Z,15.93
2018-11-03T00:54:07.647Z,21.03
2018-11-03T00:56:35.752Z,17.00
2018-11-03T00:59:03.892Z,18.17
2018-11-03T01:01:31.995Z,18.03
2018-11-03T01:04:00.100Z,18.27
2018-11-03T01:06:28.165Z,17.67
2018-11-03T01:08:56.241Z,19.10
2018-11-03T01:11:24.324Z,16.67
2018-11-03T01:13:52.384Z,18.43
2018-11-03T01:16:20.461Z,18.00
2018-11-03T01:18:48.604Z,18.00
2018-11-03T01:21:16.719Z,17.10
2018-11-03T01:23:44.881Z,18.50
2018-11-03T01:26:12.955Z,18.63
2018-11-03T01:28:41.047Z,18.40
2018-11-03T01:31:09.251Z,18.17
2018-11-03T01:33:37.343Z,16.10
2018-11-03T01:36:05.489Z,17.90
2018-11-03T01:38:33.591Z,21.33
2018-11-03T01:41:01.688Z,19.13
2018-11-03T01:43:29.750Z,16.17
2018-11-03T01:45:57.891Z,16.27
2018-11-03T01:48:25.995Z,15.13
2018-11-03T01:50:54.063Z,18.90
2018-11-03T01:53:22.196Z,17.23
2018-11-03T01:55:50.273Z,16.20
2018-11-03T01:58:25.047Z,17.67
2018-11-03T02:00:53.225Z,18.73
2018-11-03T02:03:21.273Z,16.80
2018-11-03T02:05:49.370Z,18.47
2018-11-03T02:08:17.435Z,19.63
2018-11-03T02:10:45.534Z,20.23
2018-11-03T02:13:13.606Z,23.33
2018-11-03T02:15:41.684Z,20.87
2018-11-03T02:18:09.756Z,22.63
2018-11-03T02:20:37.821Z,21.70
2018-11-03T02:23:05.886Z,20.97
2018-11-03T02:25:33.996Z,19.00
2018-11-03T02:28:02.072Z,20.93
2018-11-03T02:30:30.160Z,25.20
2018-11-03T02:32:58.236Z,24.90
2018-11-03T02:35:26.311Z,26.70
2018-11-03T02:37:54.390Z,21.93
2018-11-03T02:40:22.472Z,25.43
2018-11-03T02:42:50.519Z,21.93
2018-11-03T02:45:18.669Z,22.20
2018-11-03T02:47:46.732Z,22.60
2018-11-03T02:50:14.824Z,22.20
2018-11-03T02:52:43.285Z,23.90
2018-11-03T02:55:11.396Z,22.60
2018-11-03T02:57:39.507Z,23.27
2018-11-03T03:00:08.714Z,23.17
2018-11-03T03:02:36.795Z,23.60
2018-11-03T03:05:05.600Z,25.37
2018-11-03T03:07:33.718Z,23.77
2018-11-03T03:10:01.783Z,22.87
2018-11-03T03:12:29.864Z,23.40
2018-11-03T03:14:57.932Z,25.13
2018-11-03T03:17:26.002Z,24.50
2018-11-03T03:19:54.088Z,26.90
2018-11-03T03:22:22.179Z,24.27
2018-11-03T03:24:50.253Z,22.23
2018-11-03T03:27:18.309Z,22.00
2018-11-03T03:29:46.356Z,23.50
2018-11-03T03:32:14.421Z,25.60
2018-11-03T03:34:42.520Z,22.27
2018-11-03T03:37:10.604Z,25.57
2018-11-03T03:39:38.703Z,24.07
2018-11-03T03:42:06.777Z,23.53
2018-11-03T03:44:34.847Z,23.37
2018-11-03T03:47:02.941Z,23.37
2018-11-03T03:49:31.058Z,23.60
2018-11-03T03:51:59.060Z,22.27
2018-11-03T03:54:27.132Z,25.17
2018-11-03T03:56:55.204Z,24.30
2018-11-03T03:59:23.324Z,23.10
2018-11-03T04:01:51.460Z,24.63
2018-11-03T04:04:19.533Z,23.57
2018-11-03T04:06:47.590Z,25.20
2018-11-03T04:09:15.708Z,24.47
2018-11-03T04:11:43.779Z,26.70
2018-11-03T04:14:11.864Z,27.97
2018-11-03T04:16:39.930Z,27.80
2018-11-03T04:19:08.004Z,26.13
2018-11-03T04:21:36.060Z,27.10
2018-11-03T04:24:04.773Z,25.93
2018-11-03T04:26:32.938Z,27.50
2018-11-03T04:29:01.017Z,28.87
2018-11-03T04:31:29.116Z,27.27
2018-11-03T04:34:00.567Z,27.33
2018-11-03T04:36:28.635Z,28.53
2018-11-03T04:38:56.707Z,27.03
2018-11-03T04:41:24.827Z,26.47
2018-11-03T04:43:52.969Z,31.37
2018-11-03T04:46:21.042Z,26.33
2018-11-03T04:48:53.195Z,25.80
2018-11-03T04:51:21.289Z,26.77
2018-11-03T04:53:49.378Z,26.07
2018-11-03T04:56:17.793Z,27.13
2018-11-03T04:58:45.878Z,26.00
2018-11-03T05:01:13.982Z,26.07
2018-11-03T05:03:42.038Z,27.67
2018-11-03T05:06:10.102Z,24.93
2018-11-03T05:08:45.036Z,28.53
2018-11-03T05:11:13.132Z,25.60
2018-11-03T05:13:41.352Z,27.97
2018-11-03T05:16:09.436Z,26.73
2018-11-03T05:18:37.593Z,28.33
2018-11-03T05:21:06.092Z,30.10
2018-11-03T05:23:34.369Z,28.87
2018-11-03T05:26:02.469Z,28.90
2018-11-03T05:28:30.688Z,26.20
2018-11-03T05:30:58.846Z,27.10
2018-11-03T05:33:26.961Z,26.63
2018-11-03T05:35:55.057Z,27.30
2018-11-03T05:38:23.115Z,27.20
2018-11-03T05:40:51.181Z,26.97
2018-11-03T05:43:19.320Z,23.93
2018-11-03T05:45:47.504Z,28.97
2018-11-03T05:48:15.551Z,26.37
2018-11-03T05:50:43.606Z,24.90
2018-11-03T05:53:11.664Z,27.63
2018-11-03T05:55:39.719Z,25.97
2018-11-03T05:58:07.820Z,26.77
2018-11-03T06:00:36.056Z,27.97
2018-11-03T06:03:04.129Z,31.43
2018-11-03T06:05:32.212Z,30.67
2018-11-03T06:08:00.348Z,26.77
2018-11-03T06:10:28.408Z,26.13
2018-11-03T06:12:56.475Z,27.40
2018-11-03T06:15:24.632Z,27.23
2018-11-03T06:17:52.735Z,26.20
2018-11-03T06:20:20.852Z,29.03
2018-11-03T06:22:48.942Z,29.17
2018-11-03T06:25:17.010Z,28.70
2018-11-03T06:27:45.081Z,30.70
2018-11-03T06:30:13.161Z,31.33
2018-11-03T06:32:41.244Z,29.23
2018-11-03T06:35:10.227Z,28.47
2018-11-03T06:37:38.274Z,27.97
2018-11-03T06:40:06.770Z,29.57
2018-11-03T06:42:35.030Z,32.67
2018-11-03T06:45:03.085Z,29.97
2018-11-03T06:47:38.204Z,28.13
2018-11-03T06:50:06.707Z,27.77
2018-11-03T06:52:34.822Z,27.63
2018-11-03T06:55:02.922Z,26.77
2018-11-03T06:57:30.972Z,30.20
2018-11-03T06:59:59.098Z,33.27
2018-11-03T07:02:27.207Z,30.60
2018-11-03T07:04:55.292Z,27.73
2018-11-03T07:07:23.354Z,27.43
2018-11-03T07:09:51.492Z,31.47
2018-11-03T07:12:19.680Z,30.27
2018-11-03T07:14:47.725Z,27.33
2018-11-03T07:17:16.170Z,27.57
2018-11-03T07:19:44.256Z,27.50
2018-11-03T07:22:12.366Z,27.73
2018-11-03T07:24:40.472Z,27.43
2018-11-03T07:27:08.549Z,28.80
2018-11-03T07:29:36.743Z,27.23
2018-11-03T07:32:04.723Z,33.43
2018-11-03T07:34:32.871Z,26.40
2018-11-03T07:37:01.005Z,28.93
2018-11-03T07:39:29.222Z,27.70
2018-11-03T07:41:57.311Z,27.30
2018-11-03T07:44:25.407Z,26.73
2018-11-03T07:46:53.509Z,27.37
2018-11-03T07:49:21.681Z,29.37
2018-11-03T07:51:49.705Z,27.60
2018-11-03T07:54:17.794Z,27.80
2018-11-03T07:56:45.913Z,25.50
2018-11-03T07:59:14.032Z,29.10
2018-11-03T08:01:42.126Z,28.37
2018-11-03T08:04:10.214Z,28.23
2018-11-03T08:06:38.480Z,28.43
2018-11-03T08:09:08.252Z,30.17
2018-11-03T08:11:36.263Z,27.27
2018-11-03T08:14:04.362Z,26.60
2018-11-03T08:16:32.436Z,26.40
2018-11-03T08:19:00.759Z,27.00
2018-11-03T08:21:28.822Z,25.33
2018-11-03T08:23:56.982Z,30.07
2018-11-03T08:26:25.032Z,25.10
2018-11-03T08:28:53.088Z,28.60
2018-11-03T08:31:21.193Z,28.90
2018-11-03T08:33:49.263Z,27.53
2018-11-03T08:36:17.381Z,29.23
2018-11-03T08:38:45.453Z,26.70
2018-11-03T08:41:13.533Z,26.37
2018-11-03T08:43:41.588Z,26.40
2018-11-03T08:46:10.157Z,27.83
2018-11-03T08:48:38.290Z,26.60
2018-11-03T08:51:06.623Z,29.30
2018-11-03T08:53:34.757Z,29.23
2018-11-03T08:56:02.839Z,26.20
2018-11-03T08:58:30.964Z,26.07
2018-11-03T09:00:59.838Z,28.77
2018-11-03T09:03:27.904Z,29.90
2018-11-03T09:05:56.034Z,26.00
2018-11-03T09:08:24.111Z,26.20
2018-11-03T09:10:52.264Z,32.13
2018-11-03T09:13:20.371Z,29.20
2018-11-03T09:15:48.462Z,27.03
2018-11-03T09:18:16.524Z,29.57
2018-11-03T09:20:44.648Z,30.07
2018-11-03T09:23:12.745Z,28.20
2018-11-03T09:25:40.867Z,27.33
2018-11-03T09:28:08.917Z,26.07
2018-11-03T09:30:37.014Z,26.90
2018-11-03T09:33:05.332Z,23.63
2018-11-03T09:35:33.440Z,27.33
2018-11-03T09:38:01.494Z,24.53
2018-11-03T09:40:29.608Z,23.83
2018-11-03T09:42:57.744Z,21.80
2018-11-03T09:45:25.825Z,25.40
2018-11-03T09:47:53.902Z,24.83
2018-11-03T09:50:21.942Z,21.37
2018-11-03T09:52:50.032Z,22.30
2018-11-03T09:55:24.949Z,19.73
2018-11-03T09:57:53.030Z,21.60
2018-11-03T10:00:21.749Z,18.23
2018-11-03T10:02:49.856Z,16.57
2018-11-03T10:05:18.021Z,18.23
2018-11-03T10:07:46.207Z,18.90
2018-11-03T10:10:15.712Z,17.47
2018-11-03T10:12:43.960Z,14.07
2018-11-03T10:15:13.412Z,17.53
2018-11-03T10:17:41.527Z,18.13
2018-11-03T10:20:10.057Z,19.30
2018-11-03T10:22:38.321Z,12.00
2018-11-03T10:25:08.731Z,13.13
2018-11-03T10:27:36.858Z,16.13
2018-11-03T10:30:05.423Z,13.43
2018-11-03T10:32:33.632Z,12.37
2018-11-03T10:35:01.761Z,10.87
2018-11-03T10:37:29.863Z,13.00
2018-11-03T10:39:58.029Z,11.70
2018-11-03T10:42:26.277Z,13.83
2018-11-03T10:44:54.341Z,11.63
2018-11-03T10:47:22.398Z,11.10
2018-11-03T10:49:50.462Z,15.80
2018-11-03T10:52:18.526Z,15.40
2018-11-03T10:54:46.652Z,10.10
2018-11-03T10:57:14.772Z,11.20
2018-11-03T10:59:42.971Z,13.03
2018-11-03T11:02:16.552Z,12.47
2018-11-03T11:04:50.027Z,22.17
2018-11-03T11:07:23.916Z,12.70
2018-11-03T11:09:57.331Z,13.53
2018-11-03T11:12:30.951Z,13.93
2018-11-03T11:14:59.024Z,12.77
2018-11-03T11:17:27.097Z,12.13
2018-11-03T11:19:55.188Z,14.17
2018-11-03T11:22:23.318Z,14.67
2018-11-03T11:24:51.504Z,13.27
2018-11-03T11:27:19.572Z,10.37
2018-11-03T11:29:47.666Z,11.73
2018-11-03T11:32:15.782Z,14.07
2018-11-03T11:34:43.970Z,11.30
2018-11-03T11:37:12.070Z,10.37
2018-11-03T11:39:40.206Z,12.97
2018-11-03T11:42:08.310Z,10.83
2018-11-03T11:44:36.594Z,14.90
2018-11-03T11:47:04.876Z,10.73
2018-11-03T11:49:33.139Z,13.83
2018-11-03T11:52:01.230Z,16.30
2018-11-03T11:54:29.331Z,11.63
2018-11-03T11:56:57.487Z,11.73
2018-11-03T11:59:25.701Z,11.03
2018-11-03T12:01:53.840Z,14.20
2018-11-03T12:04:21.964Z,11.63
2018-11-03T12:06:50.086Z,10.97
2018-11-03T12:09:18.271Z,12.60
2018-11-03T12:11:46.372Z,11.93
2018-11-03T12:14:14.768Z,11.80
2018-11-03T12:16:42.909Z,11.67
2018-11-03T12:19:11.033Z,10.50
2018-11-03T12:21:39.115Z,11.97
2018-11-03T12:24:07.227Z,11.27
2018-11-03T12:26:35.351Z,10.13
2018-11-03T12:29:03.461Z,15.50
2018-11-03T12:31:31.889Z,10.80
2018-11-03T12:34:00.171Z,13.00
2018-11-03T12:36:28.614Z,10.03
2018-11-03T12:38:56.728Z,10.33
2018-11-03T12:41:25.138Z,10.40
2018-11-03T12:43:53.197Z,10.50
2018-11-03T12:46:21.418Z,14.07
2018-11-03T12:48:50.000Z,11.07
2018-11-03T12:51:18.141Z,11.27
2018-11-03T12:53:46.324Z,9.90
2018-11-03T12:56:14.761Z,10.70
2018-11-03T12:58:42.932Z,9.47
2018-11-03T13:01:11.413Z,11.83
2018-11-03T13:03:39.615Z,8.40
2018-11-03T13:06:10.120Z,12.53
2018-11-03T13:08:38.253Z,11.37
2018-11-03T13:11:06.466Z,10.53
2018-11-03T13:13:34.671Z,8.57
2018-11-03T13:16:03.002Z,9.67
2018-11-03T13:18:31.164Z,8.97
2018-11-03T13:20:59.590Z,8.90
2018-11-03T13:23:27.856Z,9.43
2018-11-03T13:25:55.985Z,9.20
2018-11-03T13:28:24.178Z,9.63
2018-11-03T13:30:52.308Z,12.30
2018-11-03T13:33:20.422Z,8.20
2018-11-03T13:35:48.511Z,10.50
2018-11-03T13:38:16.822Z,8.83
2018-11-03T13:40:44.995Z,10.67
2018-11-03T13:43:13.205Z,21.77
2018-11-03T13:45:41.296Z,7.33
2018-11-03T13:48:09.332Z,9.30
2018-11-03T13:50:37.622Z,12.83
2018-11-03T13:53:06.038Z,6.93
2018-11-03T13:55:34.455Z,6.60
2018-11-03T13:58:02.691Z,8.90
2018-11-03T14:00:30.996Z,9.93
2018-11-03T14:02:59.039Z,9.57
2018-11-03T14:05:27.210Z,9.97
2018-11-03T14:07:55.246Z,6.87
2018-11-03T14:10:23.329Z,12.00
2018-11-03T14:12:51.493Z,6.97
2018-11-03T14:15:20.018Z,10.50
2018-11-03T14:17:48.039Z,10.33
2018-11-03T14:20:16.746Z,8.63
2018-11-03T14:22:45.499Z,8.47
2018-11-03T14:25:14.823Z,13.27
2018-11-03T14:27:44.443Z,8.23
2018-11-03T14:30:13.116Z,8.93
2018-11-03T14:32:41.337Z,10.70
2018-11-03T14:35:10.449Z,11.10
2018-11-03T14:37:38.981Z,9.23
2018-11-03T14:40:09.621Z,10.23
2018-11-03T14:42:37.983Z,9.93
2018-11-03T14:45:06.921Z,9.33
2018-11-03T14:47:35.009Z,7.63
2018-11-03T14:50:03.917Z,8.10
2018-11-03T14:52:34.223Z,7.67
2018-11-03T14:55:02.471Z,7.97
2018-11-03T14:57:30.561Z,10.83
2018-11-03T14:59:58.647Z,11.27
2018-11-03T15:02:27.109Z,10.93
2018-11-03T15:04:55.217Z,6.60
2018-11-03T15:07:23.402Z,8.57
2018-11-03T15:09:58.221Z,9.23
2018-11-03T15:12:26.269Z,8.70
2018-11-03T15:14:54.384Z,10.23
2018-11-03T15:17:22.492Z,9.30
2018-11-03T15:19:50.719Z,10.87
2018-11-03T15:22:18.902Z,12.17
2018-11-03T15:24:46.984Z,11.13
2018-11-03T15:27:15.072Z,12.67
2018-11-03T15:29:43.124Z,11.73
2018-11-03T15:32:11.307Z,9.13
2018-11-03T15:34:39.481Z,11.80
2018-11-03T15:37:07.777Z,12.03
2018-11-03T15:39:35.941Z,10.10
2018-11-03T15:42:04.138Z,6.90
2018-11-03T15:44:32.291Z,8.70
2018-11-03T15:47:00.554Z,9.37
2018-11-03T15:49:28.656Z,9.33
2018-11-03T15:51:56.748Z,9.40
2018-11-03T15:54:24.829Z,13.10
2018-11-03T15:56:52.915Z,11.80
2018-11-03T15:59:21.015Z,8.73
2018-11-03T16:01:49.170Z,8.87
2018-11-03T16:04:17.349Z,5.53
2018-11-03T16:06:45.419Z,9.13
2018-11-03T16:09:13.779Z,10.10
2018-11-03T16:11:42.118Z,9.13
2018-11-03T16:14:10.767Z,10.83
2018-11-03T16:16:39.184Z,11.83
2018-11-03T16:19:07.757Z,10.73
2018-11-03T16:21:35.963Z,8.57
2018-11-03T16:24:04.040Z,9.50
2018-11-03T16:26:32.223Z,9.50
2018-11-03T16:29:00.292Z,8.17
2018-11-03T16:31:28.395Z,11.17
2018-11-03T16:33:56.566Z,13.37
2018-11-03T16:36:24.653Z,7.93
2018-11-03T16:38:52.763Z,9.23
2018-11-03T16:41:21.219Z,7.40
2018-11-03T16:43:49.427Z,10.37
2018-11-03T16:46:17.785Z,11.00
2018-11-03T16:48:45.862Z,8.30
2018-11-03T16:51:13.907Z,9.77
2018-11-03T16:53:41.963Z,8.60
2018-11-03T16:56:10.087Z,10.33
2018-11-03T16:58:38.224Z,8.43
2018-11-03T17:01:06.276Z,9.13
2018-11-03T17:03:34.400Z,9.63
2018-11-03T17:06:02.447Z,6.63
2018-11-03T17:08:30.541Z,9.57
2018-11-03T17:10:58.677Z,10.60
2018-11-03T17:13:26.746Z,11.30
2018-11-03T17:15:54.829Z,8.77
2018-11-03T17:18:22.895Z,7.80
2018-11-03T17:20:51.012Z,10.43
2018-11-03T17:23:19.098Z,11.70
2018-11-03T17:25:47.185Z,9.87
2018-11-03T17:28:15.264Z,13.53
2018-11-03T17:30:43.330Z,11.30
2018-11-03T17:33:11.486Z,14.47
2018-11-03T17:35:39.566Z,15.07
2018-11-03T17:38:07.739Z,18.73
2018-11-03T17:40:35.861Z,16.23
2018-11-03T17:43:03.977Z,12.53
2018-11-03T17:45:32.093Z,17.90
2018-11-03T17:48:00.226Z,18.43
2018-11-03T17:50:28.534Z,17.67
2018-11-03T17:52:56.620Z,14.90
2018-11-03T17:55:24.700Z,14.23
2018-11-03T17:57:52.817Z,14.03
2018-11-03T18:00:21.021Z,16.87
2018-11-03T18:02:49.037Z,15.70
2018-11-03T18:05:17.110Z,16.27
2018-11-03T18:07:45.183Z,16.00
2018-11-03T18:10:13.648Z,13.97
2018-11-03T18:12:42.341Z,15.57
2018-11-03T18:15:10.825Z,15.70
2018-11-03T18:17:38.965Z,13.70
2018-11-03T18:20:08.154Z,16.17
2018-11-03T18:22:36.300Z,14.17
2018-11-03T18:25:04.773Z,16.87
2018-11-03T18:27:32.999Z,17.17
2018-11-03T18:30:01.345Z,15.73
2018-11-03T18:32:29.455Z,18.23
2018-11-03T18:34:57.599Z,17.13
2018-11-03T18:37:25.700Z,17.97
2018-11-03T18:39:53.994Z,24.23
2018-11-03T18:42:22.242Z,19.13
2018-11-03T18:44:50.655Z,17.60
2018-11-03T18:47:18.751Z,19.43
2018-11-03T18:49:46.846Z,20.93
2018-11-03T18:52:14.928Z,21.90
2018-11-03T18:54:43.033Z,24.90
2018-11-03T18:57:11.209Z,40.80
2018-11-03T18:59:39.331Z,49.03
2018-11-03T19:02:07.403Z,56.90
2018-11-03T19:04:35.571Z,46.63
2018-11-03T19:07:03.728Z,45.20
2018-11-03T19:09:32.130Z,40.37
2018-11-03T19:12:00.257Z,34.07
2018-11-03T19:14:28.404Z,26.73
2018-11-03T19:16:56.543Z,25.03
2018-11-03T19:19:24.660Z,27.80
2018-11-03T19:21:52.771Z,22.47
2018-11-03T19:24:21.028Z,22.90
2018-11-03T19:26:49.041Z,17.73
2018-11-03T19:29:17.191Z,24.10
2018-11-03T19:31:45.421Z,23.77
2018-11-03T19:34:13.844Z,23.60
2018-11-03T19:36:42.093Z,23.73
2018-11-03T19:39:10.641Z,23.13
2018-11-03T19:41:38.813Z,22.07
2018-11-03T19:44:07.591Z,18.17
2018-11-03T19:46:35.689Z,20.90
2018-11-03T19:49:03.864Z,25.00
2018-11-03T19:51:32.312Z,24.97
2018-11-03T19:54:00.379Z,27.30
2018-11-03T19:56:28.472Z,31.53
2018-11-03T19:58:56.636Z,31.60
2018-11-03T20:01:24.718Z,27.63
2018-11-03T20:06:27.419Z,24.00
2018-11-03T20:08:55.908Z,24.20
2018-11-03T20:11:24.271Z,25.83
2018-11-03T20:13:52.377Z,24.83
2018-11-03T20:16:20.610Z,26.10
2018-11-03T20:18:48.745Z,31.43
2018-11-03T20:21:16.853Z,33.63
2018-11-03T20:23:45.027Z,28.67
2018-11-03T20:26:13.214Z,39.50
2018-11-03T20:28:41.328Z,39.03
2018-11-03T20:31:09.557Z,42.57
2018-11-03T20:33:37.687Z,41.27
2018-11-03T20:36:06.494Z,45.50
2018-11-03T20:38:34.609Z,41.37
2018-11-03T20:41:02.712Z,37.17
2018-11-03T20:43:30.806Z,36.33
2018-11-03T20:45:58.920Z,33.80
2018-11-03T20:48:27.026Z,30.80
2018-11-03T20:51:00.857Z,35.30
2018-11-03T20:53:28.967Z,33.23
2018-11-03T20:55:57.387Z,31.40
2018-11-03T20:58:25.538Z,33.57
2018-11-03T21:00:53.634Z,31.20
2018-11-03T21:03:21.860Z,29.63
2018-11-03T21:05:49.981Z,29.13
2018-11-03T21:08:18.784Z,26.30
2018-11-03T21:10:46.753Z,27.93
2018-11-03T21:20:11.506Z,30.20
2018-11-03T21:22:39.702Z,30.33
2018-11-03T21:25:07.803Z,28.43
2018-11-03T21:27:35.883Z,28.37
2018-11-03T21:30:04.412Z,28.83
2018-11-03T21:32:32.529Z,28.83
2018-11-03T21:35:00.711Z,23.40
2018-11-03T21:37:28.889Z,21.93
2018-11-03T21:39:57.092Z,24.37
2018-11-03T21:42:25.233Z,26.93
2018-11-03T21:44:53.379Z,22.43
2018-11-03T21:47:21.551Z,23.00
2018-11-03T21:49:49.693Z,24.30
2018-11-03T21:52:17.825Z,27.17
2018-11-03T21:54:46.203Z,24.63
2018-11-03T21:57:14.379Z,25.17
2018-11-03T21:59:42.499Z,29.17
2018-11-03T22:02:10.667Z,24.80
2018-11-03T22:04:39.077Z,25.23
2018-11-03T22:07:07.281Z,25.57
2018-11-03T22:09:35.392Z,25.57
2018-11-03T22:12:03.699Z,21.30
2018-11-03T22:14:31.817Z,21.03
2018-11-03T22:16:59.932Z,24.50
2018-11-03T22:19:28.025Z,23.47
2018-11-03T22:21:56.195Z,22.20
2018-11-03T22:24:24.407Z,23.00
2018-11-03T22:26:52.532Z,25.77
2018-11-03T22:29:20.746Z,22.00
2018-11-03T22:31:48.907Z,22.50
2018-11-03T22:34:17.004Z,21.87
2018-11-03T22:36:45.305Z,23.13
2018-11-03T22:39:13.496Z,22.50
2018-11-03T22:41:41.595Z,25.67
2018-11-03T22:44:09.821Z,24.60
2018-11-03T22:46:37.899Z,26.83
2018-11-03T22:49:06.033Z,22.77
2018-11-03T22:51:34.285Z,25.10
2018-11-03T22:54:02.312Z,28.43
2018-11-03T22:56:30.385Z,24.73
2018-11-03T22:58:58.789Z,26.87
2018-11-03T23:01:26.875Z,27.27
2018-11-03T23:03:55.008Z,23.03
2018-11-03T23:06:23.147Z,22.97
2018-11-03T23:08:51.275Z,22.37
2018-11-03T23:11:19.389Z,23.37
2018-11-03T23:13:47.568Z,21.53
2018-11-03T23:16:15.630Z,21.90
2018-11-03T23:18:43.739Z,19.80
2018-11-03T23:21:11.824Z,24.73
2018-11-03T23:23:39.924Z,24.43
2018-11-03T23:26:08.009Z,26.30
2018-11-03T23:28:36.104Z,24.57
2018-11-03T23:31:04.216Z,21.40
2018-11-03T23:33:32.274Z,22.70
2018-11-03T23:36:00.372Z,24.57
2018-11-03T23:38:28.512Z,24.73
2018-11-03T23:40:56.654Z,24.80
2018-11-03T23:43:24.733Z,23.60
2018-11-03T23:45:52.776Z,23.83
2018-11-03T23:48:20.840Z,22.87
2018-11-03T23:50:48.983Z,22.97
2018-11-03T23:53:17.119Z,23.00
2018-11-03T23:55:45.213Z,23.03
2018-11-03T23:58:13.258Z,19.57
